createdAt,value
2018-05-06T08:14:26.526Z,170
2018-05-06T08:15:48.391Z,170
2018-05-06T08:17:10.555Z,170
2018-05-06T08:18:32.760Z,170
2018-05-06T08:19:54.572Z,170
2018-05-06T08:21:16.406Z,170
2018-05-06T08:22:38.545Z,170
2018-05-06T08:24:00.789Z,170
2018-05-06T08:25:23.018Z,170
2018-05-06T08:26:45.616Z,170
2018-05-06T08:28:08.205Z,170
2018-05-06T08:29:30.766Z,175
2018-05-06T08:30:53.023Z,170
2018-05-06T08:32:14.968Z,170
2018-05-06T08:33:37.225Z,170
2018-05-06T08:34:59.171Z,170
2018-05-06T08:36:21.154Z,170
2018-05-06T08:37:43.805Z,170
2018-05-06T08:39:06.225Z,170
2018-05-06T08:40:28.487Z,170
2018-05-06T08:41:50.123Z,170
2018-05-06T08:43:12.693Z,170
2018-05-06T08:44:34.982Z,170
2018-05-06T08:45:57.823Z,170
2018-05-06T08:47:20.082Z,165
2018-05-06T08:48:42.933Z,170
2018-05-06T08:50:05.461Z,170
2018-05-06T08:51:27.199Z,165
2018-05-06T08:52:49.531Z,165
2018-05-06T08:54:11.495Z,165
2018-05-06T08:55:34.094Z,165
2018-05-06T08:56:56.333Z,165
2018-05-06T08:58:18.591Z,165
2018-05-06T08:59:40.956Z,165
2018-05-06T09:01:03.592Z,165
2018-05-06T09:02:25.841Z,165
2018-05-06T09:03:48.204Z,165
2018-05-06T09:05:10.142Z,170
2018-05-06T09:06:32.439Z,170
2018-05-06T09:07:54.970Z,165
2018-05-06T09:09:17.543Z,165
2018-05-06T09:10:39.484Z,170
2018-05-06T09:12:01.447Z,165
2018-05-06T09:13:24.004Z,165
2018-05-06T09:14:45.958Z,165
2018-05-06T09:16:08.229Z,165
2018-05-06T09:17:30.797Z,165
2018-05-06T09:18:52.761Z,165
2018-05-06T09:20:15.527Z,165
2018-05-06T09:21:37.794Z,165
2018-05-06T09:23:00.315Z,165
2018-05-06T09:24:22.851Z,165
2018-05-06T09:25:44.949Z,165
2018-05-06T09:27:07.498Z,165
2018-05-06T09:28:30.083Z,165
2018-05-06T09:29:52.336Z,165
2018-05-06T09:31:14.868Z,165
2018-05-06T09:32:37.244Z,165
2018-05-06T09:33:59.494Z,165
2018-05-06T09:35:22.062Z,165
2018-05-06T09:36:44.387Z,165
2018-05-06T09:38:07.060Z,165
2018-05-06T09:39:28.989Z,165
2018-05-06T09:40:51.500Z,165
2018-05-06T09:42:45.887Z,165
2018-05-06T09:44:08.419Z,165
2018-05-06T09:45:30.628Z,165
2018-05-06T09:46:52.904Z,170
2018-05-06T09:48:15.620Z,165
2018-05-06T09:49:38.132Z,165
2018-05-06T09:51:00.703Z,165
2018-05-06T09:52:23.298Z,165
2018-05-06T09:53:45.527Z,165
2018-05-06T09:55:07.704Z,165
2018-05-06T09:56:29.907Z,165
2018-05-06T09:57:52.479Z,165
2018-05-06T09:59:15.106Z,165
2018-05-06T10:00:37.344Z,165
2018-05-06T10:01:59.804Z,165
2018-05-06T10:03:21.999Z,165
2018-05-06T10:04:44.566Z,165
2018-05-06T10:06:06.819Z,165
2018-05-06T10:07:29.073Z,165
2018-05-06T10:08:51.350Z,165
2018-05-06T10:10:13.899Z,165
2018-05-06T10:11:36.424Z,165
2018-05-06T10:12:57.752Z,165
2018-05-06T10:14:20.001Z,160
2018-05-06T10:15:42.311Z,160
2018-05-06T10:17:04.577Z,160
2018-05-06T10:18:27.122Z,160
2018-05-06T10:19:49.327Z,160
2018-05-06T10:21:11.899Z,160
2018-05-06T10:22:34.171Z,160
2018-05-06T10:23:56.477Z,160
2018-05-06T10:25:18.421Z,160
2018-05-06T10:26:40.407Z,160
2018-05-06T10:28:03.057Z,160
2018-05-06T10:29:25.325Z,160
2018-05-06T10:30:47.575Z,165
2018-05-06T10:32:09.286Z,160
2018-05-06T10:33:31.557Z,160
2018-05-06T10:34:53.508Z,160
2018-05-06T10:36:15.460Z,160
2018-05-06T10:37:38.254Z,160
2018-05-06T10:39:00.181Z,160
2018-05-06T10:40:22.400Z,160
2018-05-06T10:41:45.038Z,160
2018-05-06T10:43:07.322Z,160
2018-05-06T10:44:30.077Z,160
2018-05-06T10:45:52.027Z,160
2018-05-06T10:47:14.555Z,160
2018-05-06T10:48:37.414Z,160
2018-05-06T10:49:59.769Z,160
2018-05-06T10:51:22.075Z,160
2018-05-06T10:52:43.989Z,160
2018-05-06T10:54:06.241Z,160
2018-05-06T10:55:28.747Z,160
2018-05-06T10:56:50.933Z,160
2018-05-06T10:58:12.978Z,155
2018-05-06T10:59:35.548Z,155
2018-05-06T11:00:57.813Z,155
2018-05-06T11:02:20.084Z,160
2018-05-06T11:03:41.984Z,160
2018-05-06T11:05:04.237Z,160
2018-05-06T11:06:26.806Z,160
2018-05-06T11:07:49.369Z,155
2018-05-06T11:09:11.626Z,155
2018-05-06T11:10:34.320Z,155
2018-05-06T11:11:56.579Z,155
2018-05-06T11:13:18.835Z,155
2018-05-06T11:14:41.422Z,155
2018-05-06T11:16:03.366Z,155
2018-05-06T11:17:25.916Z,155
2018-05-06T11:18:47.546Z,155
2018-05-06T11:20:10.081Z,155
2018-05-06T11:21:32.663Z,155
2018-05-06T11:22:54.606Z,155
2018-05-06T11:24:17.164Z,155
2018-05-06T11:25:39.695Z,155
2018-05-06T11:27:02.251Z,155
2018-05-06T11:28:24.521Z,155
2018-05-06T11:29:46.760Z,155
2018-05-06T11:31:09.310Z,155
2018-05-06T11:32:31.841Z,155
2018-05-06T11:33:54.179Z,155
2018-05-06T11:35:16.119Z,155
2018-05-06T11:36:38.383Z,155
2018-05-06T11:38:00.855Z,155
2018-05-06T11:39:23.410Z,160
2018-05-06T11:40:45.964Z,155
2018-05-06T11:42:07.919Z,155
2018-05-06T11:43:30.169Z,160
2018-05-06T11:44:52.431Z,155
2018-05-06T11:46:14.371Z,155
2018-05-06T11:47:36.620Z,155
2018-05-06T11:48:58.852Z,155
2018-05-06T11:50:21.389Z,155
2018-05-06T11:51:43.621Z,155
2018-05-06T11:53:05.883Z,155
2018-05-06T11:54:28.417Z,155
2018-05-06T11:55:51.042Z,155
2018-05-06T11:57:13.322Z,155
2018-05-06T11:58:35.261Z,155
2018-05-06T11:59:57.829Z,155
2018-05-06T12:01:20.188Z,150
2018-05-06T12:02:42.253Z,150
2018-05-06T12:04:04.831Z,150
2018-05-06T12:05:26.736Z,150
2018-05-06T12:06:49.240Z,150
2018-05-06T12:08:11.805Z,150
2018-05-06T12:09:33.844Z,155
2018-05-06T12:10:55.463Z,150
2018-05-06T12:12:18.047Z,150
2018-05-06T12:13:40.593Z,155
2018-05-06T12:15:03.396Z,150
2018-05-06T12:16:26.037Z,150
2018-05-06T12:17:48.623Z,150
2018-05-06T12:19:10.900Z,150
2018-05-06T12:20:33.413Z,150
2018-05-06T12:21:55.477Z,150
2018-05-06T12:23:18.034Z,150
2018-05-06T12:24:40.580Z,150
2018-05-06T12:26:03.097Z,150
2018-05-06T12:27:25.300Z,150
2018-05-06T12:28:47.872Z,150
2018-05-06T12:30:10.448Z,150
2018-05-06T12:31:33.012Z,150
2018-05-06T12:32:55.633Z,150
2018-05-06T12:34:18.208Z,150
2018-05-06T12:35:40.860Z,150
2018-05-06T12:37:03.132Z,155
2018-05-06T12:38:25.165Z,150
2018-05-06T12:39:47.412Z,150
2018-05-06T12:41:09.760Z,150
2018-05-06T12:42:32.031Z,150
2018-05-06T12:43:54.140Z,150
2018-05-06T12:45:16.397Z,150
2018-05-06T12:46:38.968Z,150
2018-05-06T12:48:01.238Z,150
2018-05-06T12:49:23.865Z,150
2018-05-06T12:50:45.746Z,150
2018-05-06T12:52:08.352Z,150
2018-05-06T12:53:30.932Z,150
2018-05-06T12:54:53.185Z,150
2018-05-06T12:56:15.425Z,150
2018-05-06T12:57:38.047Z,150
2018-05-06T12:59:00.054Z,150
2018-05-06T13:00:22.317Z,150
2018-05-06T13:01:44.546Z,150
2018-05-06T13:03:06.708Z,150
2018-05-06T13:04:28.076Z,150
2018-05-06T13:05:50.616Z,155
2018-05-06T13:07:12.245Z,150
2018-05-06T13:08:34.189Z,155
2018-05-06T13:09:56.740Z,155
2018-05-06T13:11:19.321Z,150
2018-05-06T13:12:41.852Z,145
2018-05-06T13:14:04.364Z,150
2018-05-06T13:15:26.618Z,150
2018-05-06T13:16:48.876Z,150
2018-05-06T13:18:11.076Z,150
2018-05-06T13:19:33.636Z,155
2018-05-06T13:20:56.157Z,155
2018-05-06T13:22:18.396Z,145
2018-05-06T13:23:40.979Z,150
2018-05-06T13:25:02.956Z,145
2018-05-06T13:26:25.237Z,145
2018-05-06T13:27:47.694Z,150
2018-05-06T13:29:09.645Z,145
2018-05-06T13:30:31.668Z,145
2018-05-06T13:31:53.918Z,150
2018-05-06T13:33:15.563Z,145
2018-05-06T13:34:38.105Z,145
2018-05-06T13:36:00.390Z,145
2018-05-06T13:37:22.707Z,145
2018-05-06T13:38:44.646Z,150
2018-05-06T13:40:06.899Z,145
2018-05-06T13:41:29.136Z,145
2018-05-06T13:42:51.701Z,145
2018-05-06T13:44:14.016Z,145
2018-05-06T13:45:36.226Z,145
2018-05-06T13:46:58.127Z,145
2018-05-06T13:48:20.391Z,145
2018-05-06T13:49:42.690Z,145
2018-05-06T13:51:05.505Z,145
2018-05-06T13:52:27.761Z,145
2018-05-06T13:53:50.602Z,145
2018-05-06T13:55:13.225Z,145
2018-05-06T13:56:35.746Z,145
2018-05-06T13:57:57.984Z,145
2018-05-06T13:59:20.273Z,145
2018-05-06T14:00:42.554Z,145
2018-05-06T14:02:04.830Z,150
2018-05-06T14:03:27.365Z,145
2018-05-06T14:04:49.292Z,145
2018-05-06T14:06:11.553Z,145
2018-05-06T14:07:33.812Z,145
2018-05-06T14:08:56.326Z,145
2018-05-06T14:10:18.533Z,145
2018-05-06T14:11:40.437Z,145
2018-05-06T14:13:03.277Z,145
2018-05-06T14:14:25.247Z,145
2018-05-06T14:15:47.177Z,145
2018-05-06T14:17:09.693Z,145
2018-05-06T14:18:32.283Z,145
2018-05-06T14:19:54.216Z,145
2018-05-06T14:21:16.765Z,145
2018-05-06T14:22:39.547Z,145
2018-05-06T14:24:01.810Z,145
2018-05-06T14:25:24.376Z,145
2018-05-06T14:26:46.617Z,145
2018-05-06T14:28:08.287Z,145
2018-05-06T14:29:30.532Z,145
2018-05-06T14:30:52.487Z,145
2018-05-06T14:32:14.753Z,145
2018-05-06T14:33:36.386Z,145
2018-05-06T14:34:58.691Z,145
2018-05-06T14:36:21.243Z,145
2018-05-06T14:37:43.460Z,140
2018-05-06T14:39:05.730Z,140
2018-05-06T14:40:28.321Z,140
2018-05-06T14:41:50.852Z,140
2018-05-06T14:43:13.172Z,140
2018-05-06T14:44:35.735Z,140
2018-05-06T14:45:58.327Z,140
2018-05-06T14:47:20.884Z,140
2018-05-06T14:48:42.974Z,140
2018-05-06T14:50:04.898Z,140
2018-05-06T14:51:27.151Z,140
2018-05-06T14:52:49.389Z,140
2018-05-06T14:54:11.929Z,140
2018-05-06T14:55:34.231Z,140
2018-05-06T14:56:56.803Z,140
2018-05-06T14:58:19.374Z,140
2018-05-06T14:59:42.217Z,140
2018-05-06T15:01:04.440Z,140
2018-05-06T15:02:26.666Z,140
2018-05-06T15:03:48.950Z,140
2018-05-06T15:05:11.215Z,140
2018-05-06T15:07:02.537Z,140
2018-05-06T15:08:25.115Z,140
2018-05-06T15:09:47.431Z,135
2018-05-06T15:11:10.016Z,135
2018-05-06T15:12:32.580Z,135
2018-05-06T15:13:55.228Z,135
2018-05-06T15:15:17.484Z,135
2018-05-06T15:16:39.730Z,135
2018-05-06T15:18:02.268Z,135
2018-05-06T15:19:24.798Z,135
2018-05-06T15:20:47.611Z,135
2018-05-06T15:22:09.861Z,135
2018-05-06T15:23:32.420Z,135
2018-05-06T15:24:54.984Z,135
2018-05-06T15:26:17.193Z,135
2018-05-06T15:27:39.133Z,135
2018-05-06T15:29:01.382Z,135
2018-05-06T15:30:23.903Z,135
2018-05-06T15:31:46.156Z,135
2018-05-06T15:33:08.404Z,135
2018-05-06T15:34:30.684Z,135
2018-05-06T15:35:52.939Z,130
2018-05-06T15:37:15.604Z,130
2018-05-06T15:38:37.868Z,130
2018-05-06T15:40:00.444Z,130
2018-05-06T15:41:22.667Z,130
2018-05-06T15:42:45.336Z,130
2018-05-06T15:44:07.582Z,130
2018-05-06T15:45:30.201Z,130
2018-05-06T15:46:52.200Z,130
2018-05-06T15:48:14.467Z,130
2018-05-06T15:49:37.006Z,130
2018-05-06T15:50:59.435Z,130
2018-05-06T15:52:21.675Z,130
2018-05-06T15:53:44.209Z,130
2018-05-06T15:55:06.471Z,130
2018-05-06T15:56:29.093Z,130
2018-05-06T15:57:51.729Z,130
2018-05-06T15:59:14.289Z,125
2018-05-06T16:00:36.258Z,125
2018-05-06T16:01:58.520Z,130
2018-05-06T16:03:20.161Z,130
2018-05-06T16:04:42.739Z,130
2018-05-06T16:06:04.994Z,130
2018-05-06T16:07:27.577Z,130
2018-05-06T16:08:50.177Z,130
2018-05-06T16:10:12.102Z,130
2018-05-06T16:11:34.658Z,130
2018-05-06T16:12:57.194Z,130
2018-05-06T16:14:19.721Z,130
2018-05-06T16:15:42.249Z,130
2018-05-06T16:17:04.778Z,130
2018-05-06T16:18:27.100Z,130
2018-05-06T16:19:49.665Z,130
2018-05-06T16:21:11.919Z,125
2018-05-06T16:22:34.377Z,125
2018-05-06T16:23:56.688Z,125
2018-05-06T16:25:19.310Z,125
2018-05-06T16:26:42.043Z,125
2018-05-06T16:28:04.644Z,125
2018-05-06T16:29:26.659Z,125
2018-05-06T16:30:48.872Z,125
2018-05-06T16:32:10.805Z,125
2018-05-06T16:33:32.768Z,125
2018-05-06T16:34:54.699Z,125
2018-05-06T16:36:17.266Z,120
2018-05-06T16:37:39.507Z,120
2018-05-06T16:39:01.372Z,120
2018-05-06T16:40:23.345Z,120
2018-05-06T16:41:46.264Z,120
2018-05-06T16:43:08.820Z,120
2018-05-06T16:44:31.657Z,120
2018-05-06T16:45:54.402Z,120
2018-05-06T16:47:16.972Z,120
2018-05-06T16:48:39.539Z,115
2018-05-06T16:50:01.765Z,115
2018-05-06T16:51:24.871Z,115
2018-05-06T16:52:47.194Z,115
2018-05-06T16:54:09.768Z,115
2018-05-06T16:55:32.309Z,115
2018-05-06T16:56:54.956Z,115
2018-05-06T16:58:16.978Z,110
2018-05-06T16:59:39.194Z,110
2018-05-06T17:01:01.735Z,110
2018-05-06T17:02:24.284Z,110
2018-05-06T17:03:46.526Z,110
2018-05-06T17:05:08.781Z,110
2018-05-06T17:06:31.457Z,110
2018-05-06T17:07:53.714Z,110
2018-05-06T17:09:15.940Z,105
2018-05-06T17:10:38.185Z,105
2018-05-06T17:12:00.438Z,105
2018-05-06T17:13:23.061Z,105
2018-05-06T17:14:45.005Z,105
2018-05-06T17:16:07.600Z,105
2018-05-06T17:17:29.862Z,100
2018-05-06T17:18:52.450Z,100
2018-05-06T17:20:15.264Z,100
2018-05-06T17:21:37.812Z,100
2018-05-06T17:23:00.288Z,100
2018-05-06T17:24:22.923Z,100
2018-05-06T17:25:45.243Z,95
2018-05-06T17:27:07.575Z,95
2018-05-06T17:28:30.119Z,95
2018-05-06T17:29:52.431Z,100
2018-05-06T17:31:15.033Z,95
2018-05-06T17:32:37.628Z,90
2018-05-06T17:34:00.197Z,90
2018-05-06T17:35:22.772Z,90
2018-05-06T17:36:44.723Z,90
2018-05-06T17:38:07.272Z,85
2018-05-06T17:39:29.604Z,85
2018-05-06T17:40:52.261Z,90
2018-05-06T17:42:14.510Z,90
2018-05-06T17:43:36.821Z,85
2018-05-06T17:44:59.672Z,85
2018-05-06T17:46:21.647Z,85
2018-05-06T17:47:43.903Z,85
2018-05-06T17:49:06.207Z,85
2018-05-06T17:50:28.830Z,80
2018-05-06T17:51:51.101Z,80
2018-05-06T17:53:13.306Z,80
2018-05-06T17:54:35.966Z,80
2018-05-06T17:55:58.380Z,75
2018-05-06T17:57:20.237Z,75
2018-05-06T17:58:43.071Z,75
2018-05-06T18:00:05.293Z,75
2018-05-06T18:01:26.986Z,70
2018-05-06T18:02:49.211Z,70
2018-05-06T18:04:11.806Z,70
2018-05-06T18:05:34.361Z,70
2018-05-06T18:06:56.926Z,65
2018-05-06T18:08:18.861Z,65
2018-05-06T18:09:41.672Z,65
2018-05-06T18:11:04.289Z,60
2018-05-06T18:12:26.845Z,60
2018-05-06T18:13:49.078Z,60
2018-05-06T18:15:11.319Z,55
2018-05-06T18:16:33.911Z,55
2018-05-06T18:17:56.219Z,55
2018-05-06T18:19:18.531Z,55
2018-05-06T18:20:40.878Z,50
2018-05-06T18:22:03.385Z,50
2018-05-06T18:23:25.976Z,50
2018-05-06T18:24:48.384Z,45
2018-05-06T18:26:10.894Z,45
2018-05-06T18:27:33.184Z,45
2018-05-06T18:28:55.701Z,40
2018-05-06T18:30:18.269Z,40
2018-05-06T18:31:40.830Z,40
2018-05-06T18:33:03.086Z,35
2018-05-06T18:34:25.318Z,35
2018-05-06T18:35:47.867Z,35
2018-05-06T18:37:10.406Z,30
2018-05-06T18:38:32.665Z,30
2018-05-06T18:39:55.428Z,30
2018-05-06T18:41:18.000Z,25
2018-05-06T18:42:40.880Z,25
2018-05-06T18:44:03.482Z,25
2018-05-06T18:45:26.108Z,20
2018-05-06T18:46:48.217Z,20
2018-05-06T18:48:10.659Z,20
2018-05-06T18:49:33.218Z,20
2018-05-06T18:50:55.185Z,15
2018-05-06T18:52:17.436Z,15
2018-05-06T18:53:39.700Z,15
2018-05-06T18:55:01.942Z,15
2018-05-06T18:56:23.275Z,10
2018-05-06T18:57:45.876Z,10
2018-05-06T18:59:08.434Z,10
2018-05-06T19:00:30.992Z,10
2018-05-06T19:01:53.518Z,10
2018-05-06T19:03:15.782Z,5
2018-05-06T19:04:38.329Z,5
2018-05-06T19:06:00.262Z,5
2018-05-06T19:07:23.398Z,5
2018-05-06T19:08:45.439Z,5
2018-05-06T19:10:07.392Z,5
2018-05-06T19:11:29.409Z,0
2018-05-06T19:12:51.625Z,0
2018-05-06T19:14:13.862Z,0
2018-05-06T19:15:36.171Z,0
2018-05-06T19:16:58.717Z,0
2018-05-06T19:18:21.242Z,0
2018-05-06T19:19:43.780Z,0
2018-05-06T19:21:06.042Z,0
2018-05-06T19:22:28.362Z,0
2018-05-06T19:23:51.195Z,0
2018-05-06T19:25:13.458Z,0
2018-05-06T19:26:36.048Z,0
2018-05-06T19:27:58.295Z,0
2018-05-06T19:29:20.633Z,0
2018-05-06T19:30:43.352Z,0
2018-05-06T19:32:05.322Z,0
2018-05-06T19:33:27.595Z,0
2018-05-06T19:34:49.893Z,0
2018-05-06T19:36:12.715Z,0
2018-05-06T19:37:35.039Z,0
2018-05-06T19:38:57.621Z,0
2018-05-06T19:40:19.945Z,0
2018-05-06T19:41:42.525Z,0
2018-05-06T19:43:05.046Z,0
2018-05-06T19:44:27.561Z,0
2018-05-06T19:45:49.510Z,0
2018-05-06T19:47:11.163Z,0
2018-05-06T19:48:33.970Z,0
2018-05-06T19:49:56.257Z,0
2018-05-06T19:51:18.827Z,0
2018-05-06T19:52:41.650Z,0
2018-05-06T19:54:03.316Z,0
2018-05-06T19:55:25.272Z,0
2018-05-06T19:56:47.496Z,0
2018-05-06T19:58:10.345Z,0
2018-05-06T19:59:32.921Z,0
2018-05-06T20:00:55.865Z,0
2018-05-06T20:02:18.217Z,0
2018-05-06T20:03:40.492Z,0
2018-05-06T20:05:02.446Z,0
2018-05-06T20:06:25.034Z,0
2018-05-06T20:07:47.705Z,0
2018-05-06T20:09:10.332Z,0
2018-05-06T20:10:32.660Z,0
2018-05-06T20:11:55.337Z,0
2018-05-06T20:13:17.666Z,0
2018-05-06T20:14:40.219Z,0
2018-05-06T20:16:02.765Z,0
2018-05-06T20:17:25.343Z,0
2018-05-06T20:18:48.150Z,0
2018-05-06T20:20:10.445Z,0
2018-05-06T20:21:33.093Z,0
2018-05-06T20:22:55.063Z,0
2018-05-06T20:24:17.578Z,0
2018-05-06T20:25:39.176Z,0
2018-05-06T20:27:01.776Z,0
2018-05-06T20:28:24.323Z,0
2018-05-06T20:29:46.848Z,0
2018-05-06T20:31:08.745Z,0
2018-05-06T20:32:31.011Z,0
2018-05-06T20:33:53.192Z,0
2018-05-06T20:35:15.273Z,0
2018-05-06T20:36:37.181Z,0
2018-05-06T20:37:59.661Z,0
2018-05-06T20:39:22.164Z,0
2018-05-06T20:40:44.624Z,0
2018-05-06T20:42:06.272Z,0
2018-05-06T20:43:28.427Z,0
2018-05-06T20:44:50.897Z,0
2018-05-06T20:46:12.876Z,0
2018-05-06T20:47:35.064Z,0
2018-05-06T20:48:57.482Z,0
2018-05-06T20:50:19.873Z,0
2018-05-06T20:51:42.003Z,0
2018-05-06T20:53:03.932Z,0
2018-05-06T20:54:26.055Z,0
2018-05-06T20:55:47.811Z,0
2018-05-06T20:57:10.225Z,0
2018-05-06T20:58:31.772Z,0
2018-05-06T20:59:54.390Z,0
2018-05-06T21:01:16.440Z,0
2018-05-06T21:02:38.615Z,0
2018-05-06T21:04:00.927Z,0
2018-05-06T21:05:22.710Z,0
2018-05-06T21:06:45.137Z,0
2018-05-06T21:08:07.004Z,0
2018-05-06T21:09:28.846Z,0
2018-05-06T21:10:50.516Z,0
2018-05-06T21:12:12.074Z,0
2018-05-06T21:13:34.014Z,0
2018-05-06T21:14:56.127Z,0
2018-05-06T21:16:17.798Z,0
2018-05-06T21:17:39.731Z,0
2018-05-06T21:19:01.557Z,0
2018-05-06T21:20:23.108Z,0
2018-05-06T21:21:45.220Z,0
2018-05-06T21:23:07.050Z,0
2018-05-06T21:24:28.899Z,0
2018-05-06T21:25:51.001Z,0
2018-05-06T21:27:12.813Z,0
2018-05-06T21:28:35.002Z,0
2018-05-06T21:29:57.025Z,0
2018-05-06T21:31:19.144Z,0
2018-05-06T21:32:41.345Z,0
2018-05-06T21:34:03.446Z,0
2018-05-06T21:35:25.104Z,0
2018-05-06T21:36:47.209Z,0
2018-05-06T21:38:09.334Z,0
2018-05-06T21:39:31.390Z,0
2018-05-06T21:40:53.723Z,0
2018-05-06T21:42:15.822Z,0
2018-05-06T21:43:37.440Z,0
2018-05-06T21:44:59.770Z,0
2018-05-06T21:46:21.756Z,0
2018-05-06T21:47:43.828Z,0
2018-05-06T21:49:05.918Z,0
2018-05-06T21:50:27.982Z,0
2018-05-06T21:51:50.125Z,0
2018-05-06T21:53:12.627Z,0
2018-05-06T21:54:34.005Z,0
2018-05-06T21:55:55.834Z,0
2018-05-06T21:57:17.917Z,0
2018-05-06T21:58:39.986Z,0
2018-05-06T22:00:01.808Z,0
2018-05-06T22:01:23.897Z,0
2018-05-06T22:02:45.736Z,0
2018-05-06T22:04:07.833Z,0
2018-05-06T22:05:29.660Z,0
2018-05-06T22:06:51.481Z,0
2018-05-06T22:08:13.300Z,0
2018-05-06T22:09:35.389Z,0
2018-05-06T22:10:57.511Z,0
2018-05-06T22:12:19.335Z,0
2018-05-06T22:13:41.397Z,0
2018-05-06T22:15:03.209Z,0
2018-05-06T22:16:25.300Z,0
2018-05-06T22:17:47.129Z,0
2018-05-06T22:19:08.973Z,0
2018-05-06T22:20:30.792Z,0
2018-05-06T22:21:52.597Z,0
2018-05-06T22:23:14.452Z,0
2018-05-06T22:24:36.252Z,0
2018-05-06T22:25:58.339Z,0
2018-05-06T22:27:20.158Z,0
2018-05-06T22:28:41.448Z,0
2018-05-06T22:30:03.544Z,0
2018-05-06T22:31:25.628Z,0
2018-05-06T22:32:47.706Z,0
2018-05-06T22:34:09.882Z,0
2018-05-06T22:35:31.980Z,0
2018-05-06T22:36:54.090Z,0
2018-05-06T22:38:15.638Z,0
2018-05-06T22:39:37.474Z,0
2018-05-06T22:40:59.317Z,0
2018-05-06T22:42:21.409Z,0
2018-05-06T22:43:43.502Z,0
2018-05-06T22:45:05.572Z,0
2018-05-06T22:46:27.402Z,0
2018-05-06T22:47:49.229Z,0
2018-05-06T22:49:11.296Z,0
2018-05-06T22:50:33.373Z,0
2018-05-06T22:51:55.337Z,0
2018-05-06T22:53:17.143Z,0
2018-05-06T22:54:38.955Z,0
2018-05-06T22:56:00.775Z,0
2018-05-06T22:57:22.843Z,0
2018-05-06T22:58:44.402Z,0
2018-05-06T23:00:06.492Z,0
2018-05-06T23:01:28.338Z,0
2018-05-06T23:02:50.153Z,0
2018-05-06T23:04:11.969Z,0
2018-05-06T23:05:34.131Z,0
2018-05-06T23:06:55.963Z,0
2018-05-06T23:08:18.066Z,0
2018-05-06T23:09:40.133Z,0
2018-05-06T23:11:01.950Z,0
2018-05-06T23:12:23.767Z,0
2018-05-06T23:13:45.053Z,0
2018-05-06T23:15:07.119Z,0
2018-05-06T23:16:29.340Z,0
2018-05-06T23:17:50.896Z,0
2018-05-06T23:19:13.129Z,0
2018-05-06T23:20:35.209Z,0
2018-05-06T23:21:57.106Z,0
2018-05-06T23:23:18.656Z,0
2018-05-06T23:24:40.481Z,0
2018-05-06T23:26:01.770Z,0
2018-05-06T23:27:23.850Z,0
2018-05-06T23:28:45.734Z,0
2018-05-06T23:30:08.084Z,0
2018-05-06T23:31:29.904Z,0
2018-05-06T23:32:51.715Z,0
2018-05-06T23:34:13.799Z,0
2018-05-06T23:35:35.690Z,0
2018-05-06T23:36:57.506Z,0
2018-05-06T23:38:19.585Z,0
2018-05-06T23:39:41.458Z,0
2018-05-06T23:41:03.014Z,0
2018-05-06T23:42:25.084Z,0
2018-05-06T23:43:47.270Z,0
2018-05-06T23:45:09.039Z,0
2018-05-06T23:46:30.844Z,0
2018-05-06T23:47:52.645Z,0
2018-05-06T23:49:14.819Z,0
2018-05-06T23:50:36.361Z,0
2018-05-06T23:51:58.431Z,0
2018-05-06T23:53:20.496Z,0
2018-05-06T23:54:42.401Z,0
2018-05-06T23:56:04.235Z,0
2018-05-06T23:57:25.767Z,0
2018-05-06T23:58:48.146Z,0
